Latest Weather Observations for Armidale Airport

IDN60801

Issued at 3:04 pm EDT Friday 6 March 2015 (issued every 30 minutes, with the page automatically refreshed every 10 minutes)

About weather observations | Map of weather stations | Latest weather observations for NSW | Other Formats
Station Details ID: 056238 Name: ARMIDALE AIRPORT AWS Lat: -30.53 Lon: 151.62 Height: 1079.0 m
Data from the previous 72 hours. | See also: Recent months for locations in New South Wales
Date/Time
EDT
Temp
°C
App
Temp
°C
Dew
Point
Rel
Hum
%
Delta-T
°C
Wind Press
QNH
hPa
Press
MSL
hPa
Rain
since 9 am
mm
Dir
 
Spd
km/h
Gust
km/h
Spd
kts
Gust
kts
06/03:00pm 23.1 16.8 7.2 36 8.7 W 30 43 16 23 1010.9 1005.9 0.0
06/02:33pm 23.3 17.7 8.6 39 8.3 W 28 46 15 25 1011.1 1006.2 0.0
06/02:30pm 22.9 17.0 7.4 37 8.5 W 28 39 15 21 1011.3 1006.3 0.0
06/02:00pm 22.6 16.3 9.0 42 7.7 WNW 32 43 17 23 1011.5 1006.5 0.0
06/01:30pm 21.8 17.0 10.3 48 6.6 WNW 26 35 14 19 1011.7 1006.7 0.0
06/01:00pm 21.8 16.2 10.3 48 6.6 WNW 30 41 16 22 1012.0 1007.1 0.0
06/12:30pm 20.6 15.4 10.4 52 5.8 NW 28 41 15 22 1012.4 1007.4 0.0
06/12:00pm 20.3 15.7 11.2 56 5.3 WNW 26 37 14 20 1012.7 1007.8 0.0
06/11:30am 19.4 14.3 10.7 57 5.0 WNW 28 39 15 21 1013.1 1008.2 0.0
06/11:00am 19.6 15.5 12.8 65 4.0 WNW 26 37 14 20 1013.7 1008.8 0.0
06/10:30am 18.1 14.0 12.8 71 3.1 WNW 26 35 14 19 1013.6 1008.7 0.0
06/10:00am 17.6 15.2 13.7 78 2.3 WNW 19 30 10 16 1013.5 1008.5 0.0
06/09:30am 16.1 14.4 13.6 85 1.5 WNW 15 24 8 13 1013.7 1008.8 0.0
06/09:27am 16.0 14.3 13.5 85 1.5 NW 15 24 8 13 1013.7 1008.8 0.0
06/09:00am 14.6 14.2 14.0 96 0.4 WNW 9 13 5 7 1013.6 1008.7 0.0
06/08:35am 12.8 13.7 12.8 100 0.0 CALM 0 0 0 0 1013.5 1008.5 0.0
06/08:33am 12.8 13.7 12.8 100 0.0 CALM 0 4 0 2 1013.5 1008.5 0.0
06/08:30am 12.6 13.0 12.6 100 0.0 S 2 6 1 3 1013.4 1008.4 0.0
06/08:02am 11.8 11.0 11.8 100 0.0 S 7 9 4 5 1013.3 1008.3 0.0
06/08:00am 11.7 10.9 11.7 100 0.0 S 7 9 4 5 1013.4 1008.4 0.0
06/07:46am 11.0 9.9 10.8 99 0.1 SW 7 9 4 5 1013.3 1008.3 0.0
06/07:30am 11.0 10.1 10.8 99 0.1 SSE 6 6 3 3 1012.9 1008.0 0.0
06/07:22am 11.0 10.1 10.8 99 0.1 SSE 6 7 3 4 1012.7 1007.8 0.0
06/07:00am 10.4 8.8 10.2 99 0.1 ENE 9 11 5 6 1012.4 1007.4 0.0
06/06:57am 10.4 8.8 10.2 99 0.1 ENE 9 11 5 6 1012.4 1007.4 0.0
06/06:30am 11.0 9.9 10.8 99 0.1 ESE 7 9 4 5 1012.4 1007.4 0.0
06/06:00am 11.5 9.8 11.3 99 0.1 ESE 11 13 6 7 1012.1 1007.2 0.0
06/05:30am 11.8 9.5 11.6 99 0.1 ENE 15 17 8 9 1011.8 1006.8 0.0
06/05:00am 12.0 10.1 11.8 99 0.1 E 13 17 7 9 1011.9 1007.0 0.0
06/04:30am 12.2 9.9 11.9 98 0.2 ESE 15 20 8 11 1012.0 1007.1 0.0
06/04:00am 12.5 9.4 12.2 98 0.2 E 20 24 11 13 1012.1 1007.2 0.0
06/03:30am 12.7 10.2 12.4 98 0.2 E 17 24 9 13 1012.1 1007.2 0.0
06/03:00am 13.0 10.0 12.7 98 0.2 ENE 20 28 11 15 1012.3 1007.3 0.0
06/02:30am 13.0 10.0 12.7 98 0.2 ENE 20 28 11 15 1012.8 1007.9 0.0
06/02:00am 13.2 10.5 12.9 98 0.2 ENE 19 26 10 14 1013.5 1008.5 0.0
06/01:58am 13.2 10.3 12.9 98 0.2 ENE 20 26 11 14 1013.5 1008.5 0.0
06/01:30am 13.0 10.2 12.7 98 0.2 ENE 19 24 10 13 1013.9 1009.0 0.0
06/01:12am 13.3 10.6 13.0 98 0.2 ENE 19 24 10 13 1014.1 1009.2 0.0
06/01:04am 13.2 10.3 12.9 98 0.2 E 20 26 11 14 1014.3 1009.3 0.0
06/01:00am 13.3 10.6 13.0 98 0.2 E 19 26 10 14 1014.3 1009.3 0.0
06/12:30am 13.9 11.2 13.6 98 0.2 ENE 20 24 11 13 1014.6 1009.7 0.0
06/12:00am 13.5 10.9 13.2 98 0.2 ENE 19 22 10 12 1014.6 1009.7 0.0
 
Date/Time
EDT
Temp
°C
App
Temp
°C
Dew
Point
Rel
Hum
%
Delta-T
°C
Wind Press
QNH
hPa
Press
MSL
hPa
Rain
since 9 am
mm
Dir
 
Spd
km/h
Gust
km/h
Spd
kts
Gust
kts
05/11:59pm 13.5 10.9 13.2 98 0.2 ENE 19 22 10 12 1014.6 1009.7 0.0
05/11:30pm 13.1 10.7 12.8 98 0.2 ENE 17 20 9 11 1014.5 1009.6 0.0
05/11:00pm 13.2 10.5 11.6 90 0.9 ENE 17 19 9 10 1014.5 1009.6 0.0
05/10:30pm 14.4 12.0 10.0 75 2.4 E 13 17 7 9 1014.5 1009.6 0.0
05/10:00pm 16.2 11.6 3.6 43 6.2 S 17 22 9 12 1014.3 1009.3 0.0
05/09:30pm 15.9 11.9 2.7 41 6.3 SW 13 15 7 8 1013.6 1008.7 0.0
05/09:00pm 16.0 12.0 2.8 41 6.4 WSW 13 13 7 7 1013.4 1008.4 0.0
05/08:30pm 16.3 12.7 3.0 41 6.4 WSW 11 13 6 7 1012.9 1008.0 0.0
05/08:00pm 17.1 14.2 2.7 38 7.0 W 7 11 4 6 1012.5 1007.5 0.0
05/07:30pm 18.4 14.3 2.3 34 7.8 WSW 13 15 7 8 1012.1 1007.2 0.0
05/07:00pm 21.6 16.3 2.8 29 9.4 WSW 20 24 11 13 1011.8 1006.8 0.0
05/06:30pm 23.1 16.9 2.0 25 10.5 W 24 32 13 17 1011.8 1006.8 0.0
05/06:00pm 23.9 18.4 2.1 24 10.9 W 20 32 11 17 1011.6 1006.6 0.0
05/05:30pm 24.6 18.3 1.5 22 11.5 W 24 30 13 16 1011.6 1006.6 0.0
05/05:00pm 25.0 17.1 1.2 21 11.8 WSW 32 44 17 24 1011.6 1006.6 0.0
05/04:30pm 25.4 17.3 -0.6 18 12.5 W 32 43 17 23 1011.6 1006.6 0.0
05/04:00pm 25.5 17.4 -0.5 18 12.6 W 32 44 17 24 1011.8 1006.8 0.0
05/03:30pm 25.5 17.5 0.2 19 12.4 W 32 43 17 23 1011.8 1006.8 0.0
05/03:11pm 25.3 16.9 -0.7 18 12.5 W 33 52 18 28 1011.9 1007.0 0.0
05/03:00pm 25.3 17.3 1.4 21 12.0 WSW 33 46 18 25 1012.1 1007.2 0.0
05/02:30pm 25.1 17.0 3.1 24 11.3 W 35 44 19 24 1012.3 1007.3 0.0
05/02:00pm 24.9 18.1 7.1 32 9.8 W 32 46 17 25 1012.6 1007.6 0.0
05/01:51pm 25.0 19.4 8.9 36 9.2 WNW 28 46 15 25 1012.7 1007.8 0.0
05/01:30pm 24.3 18.2 8.3 36 9.0 W 30 41 16 22 1012.8 1007.9 0.0
05/01:00pm 24.4 18.0 8.4 36 9.0 W 32 41 17 22 1013.1 1008.2 0.0
05/12:30pm 23.7 16.9 7.8 36 8.8 W 33 44 18 24 1013.5 1008.5 0.0
05/12:00pm 23.5 16.2 7.2 35 8.9 W 35 44 19 24 1013.7 1008.8 0.0
05/11:30am 23.2 16.1 6.5 34 9.0 W 33 44 18 24 1013.5 1008.5 0.0
05/11:00am 22.9 16.5 7.0 36 8.7 W 30 41 16 22 1013.6 1008.7 0.0
05/10:30am 23.2 17.2 6.9 35 8.9 W 28 35 15 19 1013.4 1008.4 0.0
05/10:00am 22.7 16.9 8.0 39 8.1 W 28 37 15 20 1013.6 1008.7 0.0
05/09:30am 21.8 16.2 8.7 43 7.3 W 28 33 15 18 1013.6 1008.7 0.0
05/09:00am 21.6 17.8 12.5 56 5.4 W 24 33 13 18 1013.4 1008.4 0.0
05/08:30am 20.3 18.2 12.3 60 4.7 W 15 20 8 11 1013.1 1008.2 0.0
05/08:00am 19.3 18.7 11.8 62 4.4 WNW 6 7 3 4 1012.9 1008.0 0.0
05/07:30am 17.9 16.9 12.4 70 3.2 NW 9 11 5 6 1012.8 1007.9 0.0
05/07:00am 17.1 15.9 11.6 70 3.2 WNW 9 11 5 6 1012.6 1007.6 0.0
05/06:30am 17.0 15.7 10.1 64 3.9 WNW 7 11 4 6 1012.4 1007.4 0.0
05/06:00am 16.4 15.2 10.3 67 3.4 WNW 7 9 4 5 1012.1 1007.2 0.0
05/05:30am 16.8 15.3 10.6 67 3.5 WNW 9 13 5 7 1012.1 1007.2 0.0
05/05:00am 17.6 16.2 10.9 65 3.8 WNW 9 11 5 6 1012.0 1007.1 0.0
05/04:30am 17.7 16.5 11.5 67 3.6 WNW 9 13 5 7 1012.3 1007.3 0.0
05/04:00am 18.1 16.5 11.7 66 3.7 WNW 11 19 6 10 1012.7 1007.8 0.0
05/03:30am 18.3 17.3 12.3 68 3.5 WNW 9 13 5 7 1012.9 1008.0 0.0
05/03:00am 18.4 17.5 13.7 74 2.8 WNW 11 13 6 7 1013.3 1008.3 0.0
05/02:30am 18.9 18.4 15.0 78 2.4 WNW 11 13 6 7 1013.5 1008.5 0.0
05/02:00am 19.3 18.8 15.0 76 2.6 W 11 13 6 7 1013.9 1009.0 0.0
05/01:30am 20.7 18.7 15.0 70 3.5 WNW 19 26 10 14 1014.3 1009.3 0.0
05/01:00am 20.1 18.9 15.1 73 3.1 WNW 15 22 8 12 1014.6 1009.7 0.0
05/12:30am 21.2 19.7 15.3 69 3.7 WNW 17 24 9 13 1014.8 1009.9 0.0
05/12:00am 21.2 20.5 15.5 70 3.6 WNW 13 19 7 10 1014.7 1009.8 0.0
 
Date/Time
EDT
Temp
°C
App
Temp
°C
Dew
Point
Rel
Hum
%
Delta-T
°C
Wind Press
QNH
hPa
Press
MSL
hPa
Rain
since 9 am
mm
Dir
 
Spd
km/h
Gust
km/h
Spd
kts
Gust
kts
04/11:30pm 20.2 20.0 14.6 70 3.4 WNW 9 13 5 7 1014.8 1009.9 0.0
04/11:00pm 21.8 20.7 14.4 63 4.5 NNW 13 17 7 9 1014.7 1009.8 0.0
04/10:30pm 21.5 20.7 13.9 62 4.6 NW 11 17 6 9 1015.0 1010.1 0.0
04/10:00pm 21.7 20.9 13.9 61 4.8 NNW 11 13 6 7 1015.3 1010.4 0.0
04/09:30pm 22.9 21.4 14.2 58 5.4 NNW 15 20 8 11 1015.5 1010.6 0.0
04/09:00pm 22.8 21.4 14.4 59 5.2 N 15 17 8 9 1015.5 1010.6 0.0
04/08:30pm 23.2 21.8 14.5 58 5.4 N 15 17 8 9 1015.4 1010.5 0.0
04/08:00pm 23.3 22.2 14.3 57 5.6 NNW 13 15 7 8 1015.4 1010.5 0.0
04/07:30pm 23.4 22.3 14.4 57 5.6 NNW 13 15 7 8 1015.3 1010.4 0.0
04/07:00pm 25.3 23.1 14.4 50 6.8 NW 19 24 10 13 1015.1 1010.2 0.0
04/06:30pm 26.5 24.9 14.9 49 7.3 NW 17 30 9 16 1015.1 1010.2 0.0
04/06:00pm 26.1 23.3 14.2 48 7.4 NW 22 28 12 15 1015.4 1010.5 0.0
04/05:30pm 27.8 25.3 15.1 46 8.1 NW 22 33 12 18 1015.4 1010.5 0.0
04/05:00pm 27.4 23.6 13.7 43 8.5 NW 26 35 14 19 1015.5 1010.6 0.0
04/04:30pm 27.5 24.8 14.5 45 8.2 WNW 22 33 12 18 1015.6 1010.7 0.0
04/04:00pm 26.3 23.5 14.4 48 7.4 WNW 22 30 12 16 1015.8 1010.9 0.0
04/03:30pm 27.8 25.2 15.8 48 7.7 NW 24 37 13 20 1016.0 1011.2 0.0
04/03:00pm 27.2 23.5 14.9 47 7.8 NW 28 37 15 20 1016.4 1011.5 0.0
04/02:30pm 26.9 24.5 16.5 53 6.7 WNW 24 35 13 19 1016.8 1011.9 0.0
04/02:00pm 26.1 23.6 15.2 51 6.9 NW 22 32 12 17 1017.4 1012.5 0.0
04/01:30pm 26.1 24.1 16.4 55 6.2 NW 22 32 12 17 1017.8 1013.0 0.0
04/01:00pm 26.0 23.2 16.3 55 6.2 NW 26 39 14 21 1018.1 1013.3 0.0
04/12:30pm 25.9 23.5 17.3 59 5.6 WNW 26 37 14 20 1018.6 1013.8 0.0
04/12:00pm 25.1 22.5 16.8 60 5.4 WNW 26 35 14 19 1018.8 1014.0 0.0
04/11:30am 25.0 22.7 16.7 60 5.3 WNW 24 33 13 18 1019.3 1014.4 0.0
04/11:00am 24.1 21.2 16.1 61 5.1 NW 26 35 14 19 1019.4 1014.5 0.0
04/10:30am 23.8 21.4 16.3 63 4.8 WNW 24 33 13 18 1019.4 1014.5 0.0
04/10:00am 22.7 20.1 16.0 66 4.2 NW 24 32 13 17 1019.3 1014.4 0.0
04/09:30am 22.7 20.3 16.5 68 4.0 NW 24 32 13 17 1019.0 1014.2 0.0
04/09:00am 21.7 19.7 17.3 76 2.8 NW 24 35 13 19 1018.9 1014.1 0.0
04/08:30am 20.6 20.5 18.7 89 1.2 NW 17 22 9 12 1018.7 1013.9 0.0
04/08:00am 18.8 19.0 17.6 93 0.8 WNW 13 15 7 8 1018.6 1013.8 0.0
04/07:30am 17.9 18.5 17.6 98 0.2 WNW 11 13 6 7 1018.0 1013.2 0.0
04/07:00am 17.0 17.2 16.8 99 0.1 WNW 11 13 6 7 1017.7 1012.8 0.0
04/06:30am 17.2 19.6 16.9 98 0.2 CALM 0 0 0 0 1017.4 1012.5 0.0
04/06:00am 17.3 19.7 17.1 99 0.1 CALM 0 0 0 0 1017.3 1012.4 0.0
04/05:30am 17.7 19.5 17.5 99 0.1 SW 4 6 2 3 1017.1 1012.3 0.0
04/05:00am 17.2 18.5 17.0 99 0.1 W 6 7 3 4 1016.9 1012.1 0.0
04/04:30am 17.5 18.8 17.5 100 0.0 SSW 7 9 4 5 1017.1 1012.3 0.0
04/04:04am 16.5 18.7 16.5 100 0.0 CALM 0 0 0 0 1017.0 1012.2 0.0
04/04:00am 16.3 18.4 16.3 100 0.0 CALM 0 0 0 0 1017.0 1012.2 0.0
04/03:30am 15.8 16.9 15.6 99 0.1 W 4 11 2 6 1017.4 1012.5 0.0
04/03:28am 15.8 17.3 15.6 99 0.1 WSW 2 11 1 6 1017.4 1012.5 0.0
04/03:00am 16.5 18.6 16.3 99 0.1 CALM 0 0 0 0 1017.5 1012.6 0.0
04/02:30am 16.7 18.9 16.5 99 0.1 CALM 0 6 0 3 1017.6 1012.7 0.0
04/02:00am 17.2 16.7 17.0 99 0.1 ENE 15 17 8 9 1017.7 1012.8 0.0
04/01:30am 17.6 16.9 17.4 99 0.1 ENE 17 19 9 10 1017.9 1013.1 0.0
04/01:00am 17.9 17.4 17.7 99 0.1 ENE 17 20 9 11 1018.5 1013.6 0.0
04/12:30am 18.0 17.9 17.8 99 0.1 ENE 15 17 8 9 1018.7 1013.9 0.0
04/12:00am 18.1 18.0 17.9 99 0.1 E 15 17 8 9 1018.7 1013.9 0.0
 
Date/Time
EDT
Temp
°C
App
Temp
°C
Dew
Point
Rel
Hum
%
Delta-T
°C
Wind Press
QNH
hPa
Press
MSL
hPa
Rain
since 9 am
mm
Dir
 
Spd
km/h
Gust
km/h
Spd
kts
Gust
kts
03/11:30pm 18.3 17.9 18.1 99 0.1 ENE 17 17 9 9 1019.0 1014.2 0.0
03/11:00pm 18.7 18.5 18.5 99 0.1 E 17 19 9 10 1019.3 1014.4 0.0
03/10:30pm 19.0 18.9 18.7 98 0.2 E 17 20 9 11 1019.5 1014.7 0.0
03/10:00pm 19.3 19.7 19.0 98 0.2 ENE 15 19 8 10 1019.7 1014.9 0.0
03/09:30pm 19.7 19.3 18.9 95 0.5 ENE 19 22 10 12 1019.5 1014.7 0.0
03/09:00pm 20.2 20.2 18.1 88 1.4 E 15 17 8 9 1019.4 1014.5 0.0
03/08:30pm 21.0 20.8 17.6 81 2.2 ESE 15 20 8 11 1019.3 1014.4 0.0
03/08:00pm 22.4 22.1 14.3 60 5.0 SSW 9 11 5 6 1018.7 1013.9 0.0
03/07:30pm 22.9 22.0 13.7 56 5.6 SSW 11 11 6 6 1018.5 1013.6 0.0
03/07:00pm 24.6 24.2 14.1 52 6.5 SSW 9 13 5 7 1018.3 1013.4 0.0
03/06:30pm 25.5 24.6 13.7 48 7.3 SW 11 17 6 9 1018.0 1013.2 0.0
03/06:00pm 25.9 23.8 12.4 43 8.2 SSW 15 22 8 12 1017.9 1013.1 0.0
03/05:30pm 26.6 24.3 13.0 43 8.3 SW 17 24 9 13 1017.7 1012.8 0.0
03/05:00pm 27.3 25.0 12.9 41 8.8 SW 17 24 9 13 1017.7 1012.8 0.0
03/04:30pm 27.4 25.2 13.4 42 8.7 WSW 17 28 9 15 1017.7 1012.8 0.0
03/04:00pm 27.4 25.6 14.4 45 8.1 SSW 17 24 9 13 1017.8 1013.0 0.0
03/03:30pm 27.4 28.0 15.7 48 7.5 SW 7 22 4 12 1018.1 1013.3 0.0

Other Formats:

Comma delimited format used in spreadsheet applications
http://www.bom.gov.au/fwo/IDN60801/IDN60801.95773.axf

JavaScript Object Notation format (JSON) in row-major order
http://www.bom.gov.au/fwo/IDN60801/IDN60801.95773.json